createdAt,value
2018-10-11T00:02:10.618Z,14.93
2018-10-11T00:04:38.804Z,15.63
2018-10-11T00:07:07.177Z,15.65
2018-10-11T00:09:35.278Z,15.48
2018-10-11T00:12:03.466Z,15.15
2018-10-11T00:14:31.678Z,15.25
2018-10-11T00:16:59.877Z,15.28
2018-10-11T00:19:28.030Z,16.05
2018-10-11T00:21:56.113Z,15.80
2018-10-11T00:24:24.313Z,15.23
2018-10-11T00:26:52.714Z,16.30
2018-10-11T00:29:20.882Z,15.05
2018-10-11T00:31:49.054Z,16.35
2018-10-11T00:34:17.251Z,16.15
2018-10-11T00:36:45.442Z,16.40
2018-10-11T00:39:13.623Z,16.35
2018-10-11T00:41:41.751Z,16.35
2018-10-11T00:44:10.139Z,17.37
2018-10-11T00:46:38.301Z,16.25
2018-10-11T00:49:06.502Z,17.10
2018-10-11T00:51:34.692Z,16.62
2018-10-11T00:54:02.870Z,16.70
2018-10-11T00:56:31.054Z,15.93
2018-10-11T00:58:59.250Z,16.77
2018-10-11T01:01:28.458Z,17.02
2018-10-11T01:03:56.646Z,17.10
2018-10-11T01:06:24.830Z,16.42
2018-10-11T01:08:53.023Z,16.87
2018-10-11T01:11:21.184Z,16.93
2018-10-11T01:13:49.370Z,16.80
2018-10-11T01:16:17.615Z,16.52
2018-10-11T01:18:45.704Z,17.42
2018-10-11T01:21:13.828Z,17.35
2018-10-11T01:23:42.034Z,17.07
2018-10-11T01:26:10.185Z,16.20
2018-10-11T01:28:38.292Z,17.75
2018-10-11T01:31:12.058Z,18.17
2018-10-11T01:33:40.236Z,21.70
2018-10-11T01:36:08.374Z,19.85
2018-10-11T01:38:36.600Z,19.45
2018-10-11T01:41:04.661Z,17.95
2018-10-11T01:43:32.834Z,18.12
2018-10-11T01:46:01.030Z,17.32
2018-10-11T01:48:29.201Z,17.48
2018-10-11T01:50:57.398Z,17.48
2018-10-11T01:53:25.582Z,17.85
2018-10-11T01:55:53.774Z,17.62
2018-10-11T01:58:21.958Z,17.75
2018-10-11T02:00:50.150Z,18.05
2018-10-11T02:03:18.327Z,17.12
2018-10-11T02:05:46.519Z,17.77
2018-10-11T02:08:14.694Z,17.98
2018-10-11T02:10:42.898Z,17.02
2018-10-11T02:13:11.070Z,17.55
2018-10-11T02:15:39.273Z,17.77
2018-10-11T02:18:07.447Z,17.80
2018-10-11T02:20:35.642Z,18.10
2018-10-11T02:23:03.823Z,18.07
2018-10-11T02:25:32.014Z,17.90
2018-10-11T02:28:00.194Z,17.67
2018-10-11T02:30:28.390Z,18.70
2018-10-11T02:32:56.572Z,18.42
2018-10-11T02:35:24.767Z,17.87
2018-10-11T02:37:52.944Z,17.70
2018-10-11T02:40:21.146Z,18.17
2018-10-11T02:42:49.337Z,19.00
2018-10-11T02:45:17.510Z,18.67
2018-10-11T02:47:45.706Z,19.02
2018-10-11T02:50:13.885Z,18.02
2018-10-11T02:52:42.073Z,18.50
2018-10-11T02:55:15.093Z,17.02
2018-10-11T02:57:54.642Z,19.60
2018-10-11T03:00:22.831Z,18.37
2018-10-11T03:02:51.025Z,18.50
2018-10-11T03:05:19.186Z,18.42
2018-10-11T03:07:47.515Z,18.50
2018-10-11T03:10:15.691Z,19.62
2018-10-11T03:12:43.858Z,19.42
2018-10-11T03:15:12.043Z,19.85
2018-10-11T03:17:40.240Z,19.27
2018-10-11T03:20:08.418Z,19.40
2018-10-11T03:22:36.607Z,18.87
2018-10-11T03:25:04.796Z,19.32
2018-10-11T03:27:32.979Z,18.65
2018-10-11T03:30:01.165Z,20.02
2018-10-11T03:32:29.258Z,19.55
2018-10-11T03:34:57.446Z,18.60
2018-10-11T03:37:25.629Z,19.10
2018-10-11T03:39:53.816Z,20.02
2018-10-11T03:42:21.994Z,19.37
2018-10-11T03:44:50.171Z,19.80
2018-10-11T03:47:18.368Z,18.90
2018-10-11T03:49:46.559Z,20.27
2018-10-11T03:52:14.734Z,19.40
2018-10-11T03:54:43.151Z,20.95
2018-10-11T03:57:11.318Z,21.33
2018-10-11T03:59:39.500Z,20.08
2018-10-11T04:02:07.719Z,20.15
2018-10-11T04:04:35.874Z,20.95
2018-10-11T04:07:04.067Z,18.87
2018-10-11T04:09:32.145Z,19.25
2018-10-11T04:12:00.334Z,19.82
2018-10-11T04:14:28.510Z,20.97
2018-10-11T04:16:56.722Z,20.60
2018-10-11T04:19:24.893Z,20.97
2018-10-11T04:21:53.231Z,22.27
2018-10-11T04:24:21.370Z,21.48
2018-10-11T04:26:49.551Z,21.35
2018-10-11T04:29:17.760Z,21.25
2018-10-11T04:31:46.226Z,20.55
2018-10-11T04:34:14.334Z,21.33
2018-10-11T04:36:42.738Z,22.48
2018-10-11T04:39:10.914Z,21.85
2018-10-11T04:41:39.413Z,20.57
2018-10-11T04:44:07.603Z,21.45
2018-10-11T04:46:35.774Z,20.65
2018-10-11T04:49:03.978Z,20.68
2018-10-11T04:51:33.175Z,21.33
2018-10-11T04:54:01.283Z,21.02
2018-10-11T04:56:29.566Z,20.52
2018-10-11T04:58:58.282Z,21.42
2018-10-11T05:01:27.099Z,21.77
2018-10-11T05:03:55.246Z,21.90
2018-10-11T05:06:23.423Z,22.20
2018-10-11T05:08:51.617Z,20.20
2018-10-11T05:11:19.802Z,21.80
2018-10-11T05:13:49.652Z,20.72
2018-10-11T05:16:17.946Z,21.15
2018-10-11T05:18:51.511Z,19.25
2018-10-11T05:21:19.782Z,21.93
2018-10-11T05:23:47.910Z,21.40
2018-10-11T05:26:16.195Z,23.27
2018-10-11T05:28:44.285Z,22.37
2018-10-11T05:31:12.485Z,22.05
2018-10-11T05:33:41.595Z,22.15
2018-10-11T05:36:09.749Z,21.25
2018-10-11T05:38:37.962Z,21.90
2018-10-11T05:41:06.357Z,22.02
2018-10-11T05:43:34.529Z,21.55
2018-10-11T05:46:03.910Z,21.62
2018-10-11T05:48:33.331Z,22.52
2018-10-11T05:51:02.134Z,22.22
2018-10-11T05:53:30.243Z,23.22
2018-10-11T05:55:58.658Z,22.77
2018-10-11T05:58:27.346Z,22.25
2018-10-11T06:00:55.750Z,21.73
2018-10-11T06:03:23.928Z,21.82
2018-10-11T06:05:52.106Z,23.07
2018-10-11T06:08:20.570Z,22.25
2018-10-11T06:10:49.155Z,22.20
2018-10-11T06:13:17.346Z,22.20
2018-10-11T06:15:45.474Z,22.75
2018-10-11T06:18:13.779Z,22.32
2018-10-11T06:20:42.273Z,23.30
2018-10-11T06:23:10.462Z,24.12
2018-10-11T06:25:38.630Z,22.55
2018-10-11T06:28:07.179Z,24.12
2018-10-11T06:30:35.542Z,23.20
2018-10-11T06:33:03.716Z,22.82
2018-10-11T06:35:32.166Z,23.77
2018-10-11T06:38:00.384Z,22.65
2018-10-11T06:40:29.394Z,22.10
2018-10-11T06:42:57.559Z,22.85
2018-10-11T06:45:25.767Z,22.85
2018-10-11T06:47:57.084Z,24.87
2018-10-11T06:50:25.330Z,25.35
2018-10-11T06:52:53.378Z,23.70
2018-10-11T06:55:21.574Z,23.57
2018-10-11T06:57:49.666Z,23.05
2018-10-11T07:00:17.841Z,23.05
2018-10-11T07:02:46.035Z,22.00
2018-10-11T07:05:14.215Z,22.98
2018-10-11T07:07:42.398Z,22.98
2018-10-11T07:10:10.581Z,22.48
2018-10-11T07:12:38.770Z,22.17
2018-10-11T07:15:07.082Z,23.32
2018-10-11T07:17:35.270Z,23.65
2018-10-11T07:20:03.438Z,20.88
2018-10-11T07:22:31.618Z,23.18
2018-10-11T07:24:59.802Z,22.15
2018-10-11T07:27:28.002Z,23.20
2018-10-11T07:29:56.138Z,24.32
2018-10-11T07:32:24.227Z,22.55
2018-10-11T07:34:52.366Z,23.05
2018-10-11T07:37:20.552Z,24.43
2018-10-11T07:39:48.722Z,25.70
2018-10-11T07:42:16.834Z,24.63
2018-10-11T07:44:45.020Z,24.00
2018-10-11T07:47:13.322Z,24.72
2018-10-11T07:49:41.374Z,22.73
2018-10-11T07:52:09.798Z,22.10
2018-10-11T07:54:37.966Z,21.90
2018-10-11T07:57:06.295Z,23.32
2018-10-11T07:59:34.430Z,21.77
2018-10-11T08:02:02.647Z,22.70
2018-10-11T08:04:30.766Z,22.37
2018-10-11T08:06:58.970Z,22.65
2018-10-11T08:09:27.098Z,24.05
2018-10-11T08:11:55.405Z,23.40
2018-10-11T08:14:23.380Z,23.90
2018-10-11T08:16:51.640Z,23.10
2018-10-11T08:19:19.965Z,23.73
2018-10-11T08:21:47.891Z,24.72
2018-10-11T08:24:15.968Z,25.75
2018-10-11T08:26:44.136Z,25.92
2018-10-11T08:29:12.170Z,24.60
2018-10-11T08:31:41.460Z,25.10
2018-10-11T08:34:09.895Z,27.02
2018-10-11T08:36:37.991Z,25.32
2018-10-11T08:39:08.575Z,25.60
2018-10-11T08:41:37.214Z,26.45
2018-10-11T08:44:05.498Z,25.23
2018-10-11T08:46:33.578Z,25.23
2018-10-11T08:49:01.841Z,24.57
2018-10-11T08:51:29.957Z,24.77
2018-10-11T08:54:03.643Z,24.85
2018-10-11T08:56:31.846Z,23.85
2018-10-11T08:59:00.096Z,23.70
2018-10-11T09:01:29.242Z,23.95
2018-10-11T09:03:57.676Z,23.67
2018-10-11T09:06:25.627Z,23.77
2018-10-11T09:08:53.810Z,21.62
2018-10-11T09:11:22.040Z,24.07
2018-10-11T09:13:50.200Z,23.70
2018-10-11T09:16:18.366Z,23.75
2018-10-11T09:18:46.486Z,23.57
2018-10-11T09:21:14.622Z,23.35
2018-10-11T09:23:42.868Z,23.35
2018-10-11T09:26:11.025Z,23.70
2018-10-11T09:28:39.222Z,23.12
2018-10-11T09:31:07.515Z,23.05
2018-10-11T09:33:35.678Z,22.58
2018-10-11T09:36:03.866Z,23.42
2018-10-11T09:38:32.098Z,22.40
2018-10-11T09:41:00.195Z,23.07
2018-10-11T09:43:28.392Z,22.75
2018-10-11T09:45:56.498Z,23.07
2018-10-11T09:48:24.676Z,21.68
2018-10-11T09:50:52.882Z,22.75
2018-10-11T09:53:21.050Z,21.68
2018-10-11T09:55:49.273Z,20.45
2018-10-11T09:58:17.413Z,21.30
2018-10-11T10:00:50.897Z,20.97
2018-10-11T10:03:19.130Z,21.90
2018-10-11T10:05:47.317Z,21.77
2018-10-11T10:08:15.498Z,20.30
2018-10-11T10:10:43.705Z,21.40
2018-10-11T10:13:11.887Z,21.10
2018-10-11T10:15:40.141Z,21.00
2018-10-11T10:18:08.274Z,26.55
2018-10-11T10:20:36.438Z,24.37
2018-10-11T10:23:04.614Z,20.57
2018-10-11T10:25:32.818Z,22.77
2018-10-11T10:28:00.913Z,20.97
2018-10-11T10:30:34.565Z,21.60
2018-10-11T10:33:02.641Z,23.02
2018-10-11T10:35:30.793Z,22.13
2018-10-11T10:37:58.966Z,24.30
2018-10-11T10:40:27.165Z,20.62
2018-10-11T10:42:55.354Z,21.35
2018-10-11T10:45:23.440Z,21.85
2018-10-11T10:47:51.627Z,20.97
2018-10-11T10:50:19.722Z,19.92
2018-10-11T10:52:47.890Z,20.90
2018-10-11T10:55:16.163Z,19.77
2018-10-11T10:57:44.258Z,22.37
2018-10-11T11:00:12.443Z,21.40
2018-10-11T11:02:40.534Z,22.20
2018-10-11T11:05:08.722Z,23.18
2018-10-11T11:07:36.922Z,21.77
2018-10-11T11:10:05.998Z,21.07
2018-10-11T11:12:34.098Z,20.92
2018-10-11T11:15:02.295Z,20.97
2018-10-11T11:17:30.486Z,21.73
2018-10-11T11:19:58.699Z,21.42
2018-10-11T11:22:26.855Z,23.05
2018-10-11T11:24:55.028Z,22.75
2018-10-11T11:27:23.245Z,20.62
2018-10-11T11:29:51.434Z,21.70
2018-10-11T11:32:19.627Z,21.50
2018-10-11T11:34:47.771Z,19.90
2018-10-11T11:37:16.605Z,20.88
2018-10-11T11:39:44.988Z,18.87
2018-10-11T11:42:13.177Z,18.98
2018-10-11T11:44:41.334Z,19.65
2018-10-11T11:47:09.550Z,18.15
2018-10-11T11:49:37.715Z,19.80
2018-10-11T11:52:06.122Z,18.73
2018-10-11T11:54:34.308Z,17.90
2018-10-11T11:57:02.485Z,19.32
2018-10-11T11:59:30.681Z,18.65
2018-10-11T12:01:58.861Z,16.87
2018-10-11T12:04:27.054Z,16.90
2018-10-11T12:06:55.241Z,17.42
2018-10-11T12:09:23.418Z,17.67
2018-10-11T12:11:51.620Z,17.95
2018-10-11T12:14:19.812Z,17.23
2018-10-11T12:16:48.140Z,19.05
2018-10-11T12:19:16.310Z,18.00
2018-10-11T12:21:44.458Z,17.12
2018-10-11T12:24:12.727Z,19.35
2018-10-11T12:26:40.838Z,17.05
2018-10-11T12:29:09.029Z,18.48
2018-10-11T12:31:37.229Z,18.82
2018-10-11T12:34:05.430Z,17.77
2018-10-11T12:36:33.751Z,20.12
2018-10-11T12:39:01.771Z,20.02
2018-10-11T12:41:29.969Z,22.37
2018-10-11T12:43:58.163Z,21.12
2018-10-11T12:46:26.342Z,21.80
2018-10-11T12:48:54.542Z,20.05
2018-10-11T12:51:23.030Z,20.90
2018-10-11T12:53:51.220Z,18.98
2018-10-11T12:56:19.450Z,19.12
2018-10-11T12:58:47.590Z,18.55
2018-10-11T13:01:18.844Z,19.05
2018-10-11T13:03:43.958Z,18.73
2018-10-11T13:06:12.159Z,19.40
2018-10-11T13:08:40.278Z,18.12
2018-10-11T13:11:08.402Z,19.32
2018-10-11T13:13:36.615Z,20.20
2018-10-11T13:16:05.086Z,20.37
2018-10-11T13:18:32.970Z,20.08
2018-10-11T13:21:01.078Z,18.65
2018-10-11T13:23:29.249Z,18.65
2018-10-11T13:25:57.435Z,19.32
2018-10-11T13:28:25.722Z,21.15
2018-10-11T13:30:53.917Z,18.85
2018-10-11T13:33:22.090Z,17.02
2018-10-11T13:35:50.291Z,16.48
2018-10-11T13:38:18.474Z,19.15
2018-10-11T13:40:46.764Z,17.55
2018-10-11T13:43:14.874Z,16.67
2018-10-11T13:45:43.025Z,17.32
2018-10-11T13:48:11.198Z,15.88
2018-10-11T13:50:39.398Z,17.02
2018-10-11T13:53:07.590Z,16.17
2018-10-11T13:55:35.897Z,17.17
2018-10-11T13:58:04.051Z,18.45
2018-10-11T14:00:32.257Z,16.95
2018-10-11T14:03:00.355Z,16.60
2018-10-11T14:05:28.510Z,16.48
2018-10-11T14:07:56.718Z,16.93
2018-10-11T14:10:24.905Z,15.58
2018-10-11T14:12:52.984Z,16.37
2018-10-11T14:15:21.238Z,17.23
2018-10-11T14:17:49.399Z,16.60
2018-10-11T14:20:17.539Z,15.35
2018-10-11T14:22:45.626Z,15.90
2018-10-11T14:25:13.794Z,17.48
2018-10-11T14:27:41.982Z,16.70
2018-10-11T14:30:10.162Z,15.90
2018-10-11T14:32:38.372Z,15.95
2018-10-11T14:35:06.886Z,15.65
2018-10-11T14:37:35.070Z,15.43
2018-10-11T14:40:03.234Z,16.02
2018-10-11T14:42:31.434Z,16.75
2018-10-11T14:44:59.619Z,15.53
2018-10-11T14:47:27.806Z,16.27
2018-10-11T14:49:55.986Z,15.55
2018-10-11T14:52:24.107Z,15.40
2018-10-11T14:54:52.269Z,14.23
2018-10-11T14:57:20.547Z,14.25
2018-10-11T14:59:48.726Z,15.00
2018-10-11T15:02:16.943Z,14.90
2018-10-11T15:04:45.117Z,14.78
2018-10-11T15:07:13.294Z,14.00
2018-10-11T15:09:41.474Z,12.75
2018-10-11T15:12:09.670Z,12.90
2018-10-11T15:14:37.843Z,13.18
2018-10-11T15:17:06.030Z,12.90
2018-10-11T15:19:34.226Z,13.62
2018-10-11T15:22:02.435Z,11.90
2018-10-11T15:24:30.598Z,11.85
2018-10-11T15:26:58.782Z,12.03
2018-10-11T15:29:27.018Z,12.55
2018-10-11T15:32:58.458Z,11.18
2018-10-11T15:35:26.634Z,11.68
2018-10-11T15:37:54.846Z,11.80
2018-10-11T15:40:23.010Z,10.45
2018-10-11T15:42:51.198Z,11.03
2018-10-11T15:45:19.378Z,11.88
2018-10-11T15:47:48.507Z,12.13
2018-10-11T15:50:16.674Z,12.10
2018-10-11T15:52:44.858Z,12.37
2018-10-11T15:55:13.053Z,11.65
2018-10-11T15:57:41.243Z,11.25
2018-10-11T16:00:09.419Z,11.45
2018-10-11T16:02:37.598Z,11.85
2018-10-11T16:05:05.807Z,12.47
2018-10-11T16:07:33.996Z,12.47
2018-10-11T16:10:02.185Z,11.48
2018-10-11T16:12:30.347Z,11.57
2018-10-11T16:14:58.549Z,11.80
2018-10-11T16:17:26.850Z,11.35
2018-10-11T16:19:55.163Z,11.35
2018-10-11T16:22:23.303Z,12.65
2018-10-11T16:24:51.673Z,12.45
2018-10-11T16:27:19.828Z,12.33
2018-10-11T16:29:48.150Z,12.68
2018-10-11T16:32:16.270Z,11.40
2018-10-11T16:34:44.463Z,12.00
2018-10-11T16:37:12.623Z,11.45
2018-10-11T16:39:40.830Z,10.78
2018-10-11T16:42:09.512Z,12.13
2018-10-11T16:44:37.715Z,11.68
2018-10-11T16:47:05.890Z,11.00
2018-10-11T16:49:34.119Z,12.20
2018-10-11T16:52:02.290Z,12.33
2018-10-11T16:54:30.454Z,12.25
2018-10-11T16:56:58.653Z,11.70
2018-10-11T16:59:26.834Z,11.73
2018-10-11T17:01:55.032Z,11.85
2018-10-11T17:04:30.269Z,11.45
2018-10-11T17:06:58.378Z,11.65
2018-10-11T17:09:26.566Z,11.38
2018-10-11T17:11:54.678Z,12.35
2018-10-11T17:14:22.830Z,12.10
2018-10-11T17:16:51.214Z,13.28
2018-10-11T17:19:19.394Z,12.37
2018-10-11T17:21:47.613Z,11.68
2018-10-11T17:24:15.759Z,12.90
2018-10-11T17:26:43.942Z,13.00
2018-10-11T17:29:12.138Z,11.93
2018-10-11T17:31:40.315Z,12.55
2018-10-11T17:34:08.503Z,13.93
2018-10-11T17:36:36.700Z,13.88
2018-10-11T17:39:07.054Z,14.40
2018-10-11T17:41:35.222Z,12.78
2018-10-11T17:44:03.488Z,13.35
2018-10-11T17:46:31.633Z,14.30
2018-10-11T17:48:59.731Z,14.15
2018-10-11T17:51:27.919Z,13.83
2018-10-11T17:53:56.047Z,14.83
2018-10-11T17:56:24.241Z,14.80
2018-10-11T17:58:52.426Z,15.03
2018-10-11T18:01:20.638Z,14.87
2018-10-11T18:03:48.793Z,14.73
2018-10-11T18:06:17.117Z,14.63
2018-10-11T18:08:45.269Z,15.13
2018-10-11T18:11:13.463Z,14.05
2018-10-11T18:13:41.646Z,15.45
2018-10-11T18:16:09.851Z,15.32
2018-10-11T18:18:38.027Z,15.05
2018-10-11T18:21:06.883Z,14.63
2018-10-11T18:23:35.024Z,15.88
2018-10-11T18:26:03.193Z,15.48
2018-10-11T18:28:31.374Z,15.60
2018-10-11T18:30:59.574Z,14.23
2018-10-11T18:33:27.770Z,15.45
2018-10-11T18:35:55.958Z,16.27
2018-10-11T18:38:24.126Z,16.30
2018-10-11T18:40:52.359Z,15.48
2018-10-11T18:43:20.502Z,15.30
2018-10-11T18:45:48.711Z,15.50
2018-10-11T18:48:17.347Z,15.65
2018-10-11T18:50:45.537Z,16.42
2018-10-11T18:53:13.658Z,19.85
2018-10-11T18:55:41.858Z,16.95
2018-10-11T18:58:10.274Z,16.48
2018-10-11T19:00:38.431Z,16.55
2018-10-11T19:03:06.651Z,17.00
2018-10-11T19:05:34.807Z,16.62
2018-10-11T19:08:02.997Z,17.45
2018-10-11T19:10:31.171Z,16.60
2018-10-11T19:12:59.369Z,15.93
2018-10-11T19:15:27.546Z,15.85
2018-10-11T19:17:55.742Z,16.55
2018-10-11T19:20:23.921Z,15.80
2018-10-11T19:22:52.260Z,16.12
2018-10-11T19:25:20.397Z,15.98
2018-10-11T19:27:48.617Z,16.52
2018-10-11T19:30:16.806Z,15.25
2018-10-11T19:32:45.002Z,16.12
2018-10-11T19:35:13.138Z,15.53
2018-10-11T19:37:41.347Z,16.80
2018-10-11T19:40:09.519Z,16.37
2018-10-11T19:42:37.746Z,15.50
2018-10-11T19:45:05.882Z,14.78
2018-10-11T19:47:34.093Z,16.23
2018-10-11T19:50:02.265Z,16.60
2018-10-11T19:52:30.473Z,15.40
2018-10-11T19:54:58.631Z,15.68
2018-10-11T19:57:26.822Z,15.70
2018-10-11T19:59:55.046Z,17.02
2018-10-11T20:02:23.214Z,16.50
2018-10-11T20:04:51.437Z,16.40
2018-10-11T20:07:20.485Z,17.25
2018-10-11T20:09:48.688Z,17.12
2018-10-11T20:12:16.773Z,16.77
2018-10-11T20:14:44.951Z,16.97
2018-10-11T20:17:13.206Z,16.75
2018-10-11T20:19:41.329Z,17.05
2018-10-11T20:22:10.258Z,17.55
2018-10-11T20:24:38.434Z,16.87
2018-10-11T20:27:06.938Z,16.93
2018-10-11T20:29:35.442Z,17.12
2018-10-11T20:32:03.595Z,17.00
2018-10-11T20:34:31.917Z,17.87
2018-10-11T20:37:00.058Z,17.40
2018-10-11T20:39:28.158Z,17.77
2018-10-11T20:41:56.264Z,17.35
2018-10-11T20:44:24.427Z,16.95
2018-10-11T20:46:52.661Z,16.97
2018-10-11T20:49:20.811Z,15.75
2018-10-11T20:51:49.006Z,18.73
2018-10-11T20:54:17.234Z,16.80
2018-10-11T20:56:45.398Z,17.07
2018-10-11T20:59:13.550Z,17.42
2018-10-11T21:01:41.750Z,18.17
2018-10-11T21:04:09.930Z,19.05
2018-10-11T21:06:38.224Z,18.57
2018-10-11T21:09:08.226Z,17.52
2018-10-11T21:11:36.351Z,18.82
2018-10-11T21:14:04.513Z,18.95
2018-10-11T21:16:32.802Z,17.42
2018-10-11T21:19:00.893Z,19.75
2018-10-11T21:21:29.419Z,17.98
2018-10-11T21:23:57.577Z,18.80
2018-10-11T21:26:25.682Z,18.40
2018-10-11T21:28:53.850Z,18.92
2018-10-11T21:31:22.058Z,19.42
2018-10-11T21:33:50.228Z,18.32
2018-10-11T21:36:18.419Z,18.25
2018-10-11T21:38:46.596Z,20.95
2018-10-11T21:41:14.775Z,19.80
2018-10-11T21:43:42.955Z,19.07
2018-10-11T21:46:11.216Z,20.85
2018-10-11T21:48:39.325Z,20.27
2018-10-11T21:51:07.422Z,20.65
2018-10-11T21:53:35.605Z,19.98
2018-10-11T21:56:03.798Z,18.65
2018-10-11T21:58:31.969Z,18.70
2018-10-11T22:01:05.557Z,18.62
2018-10-11T22:03:33.714Z,18.23
2018-10-11T22:06:01.856Z,18.77
2018-10-11T22:08:30.079Z,18.48
2018-10-11T22:10:58.231Z,19.00
2018-10-11T22:13:26.428Z,19.20
2018-10-11T22:15:54.605Z,19.20
2018-10-11T22:18:23.144Z,18.85
2018-10-11T22:20:51.432Z,19.73
2018-10-11T22:23:19.614Z,19.17
2018-10-11T22:25:47.759Z,19.87
2018-10-11T22:28:15.960Z,19.50
2018-10-11T22:30:44.134Z,19.98
2018-10-11T22:33:12.334Z,18.77
2018-10-11T22:35:40.511Z,20.27
2018-10-11T22:38:08.706Z,19.85
2018-10-11T22:40:36.890Z,22.07
2018-10-11T22:43:05.094Z,20.60
2018-10-11T22:45:33.266Z,19.60
2018-10-11T22:48:01.470Z,19.73
2018-10-11T22:50:29.642Z,20.12
2018-10-11T22:52:57.843Z,20.37
2018-10-11T22:55:30.346Z,19.80
2018-10-11T22:57:58.527Z,20.32
2018-10-11T23:00:26.711Z,20.70
2018-10-11T23:02:55.025Z,20.65
2018-10-11T23:05:23.398Z,20.02
2018-10-11T23:07:51.578Z,20.70
2018-10-11T23:10:20.190Z,20.85
2018-10-11T23:12:48.346Z,20.00
2018-10-11T23:15:16.542Z,21.00
2018-10-11T23:17:44.721Z,20.97
2018-10-11T23:20:12.916Z,20.00
2018-10-11T23:22:41.925Z,21.48
2018-10-11T23:25:10.718Z,20.77
2018-10-11T23:27:39.335Z,21.35
2018-10-11T23:30:08.085Z,20.88
2018-10-11T23:32:36.199Z,21.77
2018-10-11T23:35:05.291Z,22.25
2018-10-11T23:37:33.492Z,21.95
2018-10-11T23:40:01.691Z,23.70
2018-10-11T23:42:29.854Z,22.77
2018-10-11T23:44:58.042Z,23.32
2018-10-11T23:47:26.227Z,22.45
2018-10-11T23:49:54.462Z,23.85
2018-10-11T23:52:22.603Z,22.42
2018-10-11T23:54:50.798Z,22.62
2018-10-11T23:57:18.994Z,23.05
2018-10-11T23:59:47.178Z,24.45
